createdAt,value
2018-06-25T00:00:59.067Z,0.00
2018-06-25T00:01:59.049Z,0.00
2018-06-25T00:02:59.035Z,0.00
2018-06-25T00:03:59.035Z,0.00
2018-06-25T00:04:59.043Z,0.00
2018-06-25T00:05:59.040Z,0.00
2018-06-25T00:06:58.963Z,0.00
2018-06-25T00:08:58.978Z,0.00
2018-06-25T00:09:58.910Z,0.00
2018-06-25T00:10:58.906Z,0.00
2018-06-25T00:11:58.927Z,0.00
2018-06-25T00:13:58.851Z,0.00
2018-06-25T00:14:58.829Z,0.00
2018-06-25T00:16:59.102Z,0.00
2018-06-25T00:17:58.832Z,0.00
2018-06-25T00:19:58.736Z,0.00
2018-06-25T00:20:58.727Z,0.00
2018-06-25T00:21:58.760Z,0.00
2018-06-25T00:22:58.694Z,0.00
2018-06-25T00:23:58.730Z,0.00
2018-06-25T00:24:58.687Z,0.00
2018-06-25T00:25:58.635Z,0.00
2018-06-25T00:26:58.618Z,0.00
2018-06-25T00:27:58.706Z,0.00
2018-06-25T00:28:58.662Z,0.00
2018-06-25T00:29:58.628Z,0.00
2018-06-25T00:30:58.631Z,0.00
2018-06-25T00:31:58.631Z,0.00
2018-06-25T00:32:58.522Z,0.00
2018-06-25T00:33:58.515Z,0.00
2018-06-25T00:34:58.571Z,0.00
2018-06-25T00:35:58.535Z,0.00
2018-06-25T00:36:58.451Z,0.00
2018-06-25T00:37:58.465Z,0.00
2018-06-25T00:38:58.429Z,0.00
2018-06-25T00:39:58.469Z,0.00
2018-06-25T00:41:58.723Z,0.00
2018-06-25T00:42:58.483Z,0.00
2018-06-25T00:43:58.329Z,0.00
2018-06-25T00:44:58.322Z,0.00
2018-06-25T00:45:58.295Z,0.00
2018-06-25T00:46:58.293Z,0.00
2018-06-25T00:47:58.329Z,0.00
2018-06-25T00:48:58.246Z,0.00
2018-06-25T00:49:58.233Z,0.00
2018-06-25T00:50:58.283Z,0.00
2018-06-25T00:53:58.469Z,0.00
2018-06-25T00:55:58.139Z,0.00
2018-06-25T00:56:58.120Z,0.00
2018-06-25T00:57:58.105Z,0.00
2018-06-25T00:58:58.094Z,0.00
2018-06-25T00:59:58.108Z,0.00
2018-06-25T01:00:58.044Z,0.00
2018-06-25T01:01:58.101Z,0.00
2018-06-25T01:02:58.017Z,0.00
2018-06-25T01:03:58.003Z,0.00
2018-06-25T01:04:58.039Z,0.00
2018-06-25T01:05:58.138Z,0.00
2018-06-25T01:07:57.989Z,0.00
2018-06-25T01:09:57.967Z,0.00
2018-06-25T01:10:57.885Z,0.00
2018-06-25T01:11:57.916Z,0.00
2018-06-25T01:12:57.847Z,0.00
2018-06-25T01:13:57.837Z,0.00
2018-06-25T01:14:57.834Z,0.00
2018-06-25T01:15:57.848Z,0.00
2018-06-25T01:16:57.781Z,0.00
2018-06-25T01:17:57.818Z,0.00
2018-06-25T01:18:57.746Z,0.00
2018-06-25T01:19:57.744Z,0.00
2018-06-25T01:20:57.719Z,0.00
2018-06-25T01:21:57.697Z,0.00
2018-06-25T01:22:57.779Z,0.00
2018-06-25T01:23:57.722Z,0.00
2018-06-25T01:25:57.646Z,0.00
2018-06-25T01:26:57.635Z,0.00
2018-06-25T01:27:57.600Z,0.00
2018-06-25T01:28:57.578Z,0.00
2018-06-25T01:29:57.665Z,0.00
2018-06-25T01:30:57.554Z,0.00
2018-06-25T01:31:57.547Z,0.00
2018-06-25T01:32:57.513Z,0.00
2018-06-25T01:33:57.567Z,0.00
2018-06-25T01:34:57.487Z,0.00
2018-06-25T01:36:57.506Z,0.00
2018-06-25T01:38:57.421Z,0.00
2018-06-25T01:40:57.687Z,0.00
2018-06-25T01:41:57.367Z,0.00
2018-06-25T01:42:57.523Z,0.00
2018-06-25T01:43:57.340Z,0.00
2018-06-25T01:44:57.318Z,0.00
2018-06-25T01:45:57.303Z,0.00
2018-06-25T01:46:57.289Z,0.00
2018-06-25T01:47:57.270Z,0.00
2018-06-25T01:48:57.317Z,0.00
2018-06-25T01:49:57.240Z,0.00
2018-06-25T01:50:57.391Z,0.00
2018-06-25T01:51:57.258Z,0.00
2018-06-25T01:52:57.194Z,0.00
2018-06-25T01:53:57.172Z,0.00
2018-06-25T01:54:57.241Z,0.00
2018-06-25T01:55:57.144Z,0.00
2018-06-25T01:56:57.232Z,0.00
2018-06-25T01:57:57.151Z,0.00
2018-06-25T01:58:57.158Z,0.00
2018-06-25T01:59:57.202Z,0.00
2018-06-25T02:01:57.179Z,0.00
2018-06-25T02:02:57.035Z,0.00
2018-06-25T02:03:57.049Z,0.00
2018-06-25T02:04:57.023Z,0.00
2018-06-25T02:05:56.984Z,0.00
2018-06-25T02:07:57.000Z,0.00
2018-06-25T02:08:56.932Z,0.00
2018-06-25T02:09:57.075Z,0.00
2018-06-25T02:10:56.957Z,0.00
2018-06-25T02:11:56.882Z,4.00
2018-06-25T02:12:56.869Z,4.00
2018-06-25T02:13:56.920Z,4.00
2018-06-25T02:14:56.866Z,4.00
2018-06-25T02:15:56.905Z,0.00
2018-06-25T02:16:56.802Z,4.00
2018-06-25T02:17:56.887Z,4.00
2018-06-25T02:18:56.827Z,4.00
2018-06-25T02:19:56.802Z,4.00
2018-06-25T02:21:56.751Z,8.00
2018-06-25T02:22:56.767Z,4.00
2018-06-25T02:23:56.705Z,8.00
2018-06-25T02:24:56.670Z,4.00
2018-06-25T02:25:56.702Z,8.00
2018-06-25T02:26:56.738Z,12.00
2018-06-25T02:27:56.684Z,12.00
2018-06-25T02:28:56.601Z,12.00
2018-06-25T02:29:56.886Z,12.00
2018-06-25T02:30:56.568Z,12.00
2018-06-25T02:31:56.613Z,16.00
2018-06-25T02:32:56.676Z,16.00
2018-06-25T02:33:56.530Z,16.00
2018-06-25T02:34:56.577Z,20.00
2018-06-25T02:36:56.592Z,28.00
2018-06-25T02:37:56.534Z,28.00
2018-06-25T02:38:56.475Z,32.00
2018-06-25T02:39:56.449Z,36.00
2018-06-25T02:40:56.429Z,40.00
2018-06-25T02:41:56.503Z,40.00
2018-06-25T02:42:56.399Z,44.00
2018-06-25T02:43:56.518Z,48.00
2018-06-25T02:44:56.367Z,56.00
2018-06-25T02:45:56.422Z,56.00
2018-06-25T02:46:56.315Z,60.00
2018-06-25T02:47:56.332Z,60.00
2018-06-25T02:48:56.308Z,64.00
2018-06-25T02:49:56.391Z,72.00
2018-06-25T02:50:56.331Z,80.00
2018-06-25T02:51:56.578Z,88.00
2018-06-25T02:54:56.199Z,116.00
2018-06-25T02:57:56.148Z,144.00
2018-06-25T02:58:56.129Z,152.00
2018-06-25T02:59:56.099Z,168.00
2018-06-25T03:00:56.082Z,184.00
2018-06-25T03:01:56.127Z,184.00
2018-06-25T03:02:56.060Z,192.00
2018-06-25T03:03:56.119Z,200.00
2018-06-25T03:05:56.020Z,256.00
2018-06-25T03:06:56.007Z,268.00
2018-06-25T03:07:56.022Z,280.00
2018-06-25T03:08:55.958Z,284.00
2018-06-25T03:10:56.219Z,332.00
2018-06-25T03:11:55.915Z,348.00
2018-06-25T03:12:55.881Z,356.00
2018-06-25T03:13:56.224Z,380.00
2018-06-25T03:14:55.852Z,404.00
2018-06-25T03:15:55.833Z,424.00
2018-06-25T03:17:55.829Z,440.00
2018-06-25T03:18:55.794Z,448.00
2018-06-25T03:19:55.822Z,476.00
2018-06-25T03:20:55.753Z,512.00
2018-06-25T03:21:55.736Z,532.00
2018-06-25T03:22:55.782Z,536.00
2018-06-25T03:23:55.723Z,532.00
2018-06-25T03:24:55.733Z,552.00
2018-06-25T03:25:55.725Z,576.00
2018-06-25T03:26:55.676Z,620.00
2018-06-25T03:27:55.702Z,676.00
2018-06-25T03:29:55.962Z,748.00
2018-06-25T03:31:55.629Z,772.00
2018-06-25T03:32:55.633Z,800.00
2018-06-25T03:33:55.542Z,840.00
2018-06-25T03:34:55.596Z,808.00
2018-06-25T03:35:55.575Z,812.00
2018-06-25T03:36:55.596Z,824.00
2018-06-25T03:37:55.629Z,892.00
2018-06-25T03:38:55.500Z,976.00
2018-06-25T03:39:55.457Z,1028.00
2018-06-25T03:40:55.440Z,1108.00
2018-06-25T03:41:55.434Z,1180.00
2018-06-25T03:42:55.571Z,1216.00
2018-06-25T03:43:55.469Z,1196.00
2018-06-25T03:45:55.447Z,1228.00
2018-06-25T03:47:55.643Z,1436.00
2018-06-25T03:48:55.306Z,1376.00
2018-06-25T03:50:55.326Z,1412.00
2018-06-25T03:51:55.246Z,1536.00
2018-06-25T03:52:55.230Z,1504.00
2018-06-25T03:53:55.238Z,1552.00
2018-06-25T03:54:55.201Z,1372.00
2018-06-25T03:55:55.185Z,1252.00
2018-06-25T03:56:55.230Z,1280.00
2018-06-25T03:57:55.157Z,1260.00
2018-06-25T03:58:55.203Z,1272.00
2018-06-25T03:59:55.123Z,1264.00
2018-06-25T04:00:55.266Z,1168.00
2018-06-25T04:01:55.096Z,1268.00
2018-06-25T04:02:55.122Z,1356.00
2018-06-25T04:03:55.056Z,1248.00
2018-06-25T04:04:55.037Z,1332.00
2018-06-25T04:05:55.030Z,1428.00
2018-06-25T04:06:55.021Z,1468.00
2018-06-25T04:07:55.100Z,1544.00
2018-06-25T04:09:55.028Z,1856.00
2018-06-25T04:10:54.950Z,1968.00
2018-06-25T04:11:54.937Z,2100.00
2018-06-25T04:13:54.904Z,2740.00
2018-06-25T04:14:54.895Z,2644.00
2018-06-25T04:15:54.920Z,2860.00
2018-06-25T04:16:54.879Z,2852.00
2018-06-25T04:17:54.850Z,2720.00
2018-06-25T04:18:54.827Z,2384.00
2018-06-25T04:19:54.805Z,2452.00
2018-06-25T04:21:54.931Z,2520.00
2018-06-25T04:23:55.040Z,2512.00
2018-06-25T04:24:54.740Z,2596.00
2018-06-25T04:26:54.695Z,3000.00
2018-06-25T04:27:55.296Z,3424.00
2018-06-25T04:28:54.664Z,3572.00
2018-06-25T04:30:54.636Z,4112.00
2018-06-25T04:32:54.640Z,3620.00
2018-06-25T04:33:54.847Z,3708.00
2018-06-25T04:34:54.568Z,3260.00
2018-06-25T04:35:54.551Z,2988.00
2018-06-25T04:36:54.549Z,2976.00
2018-06-25T04:38:54.520Z,3052.00
2018-06-25T04:39:54.595Z,3420.00
2018-06-25T04:40:54.545Z,3520.00
2018-06-25T04:41:54.475Z,4000.00
2018-06-25T04:42:54.497Z,4300.00
2018-06-25T04:43:54.438Z,4244.00
2018-06-25T04:44:54.491Z,4300.00
2018-06-25T04:45:54.759Z,4252.00
2018-06-25T04:47:54.389Z,3896.00
2018-06-25T04:48:54.428Z,3808.00
2018-06-25T04:49:54.366Z,3568.00
2018-06-25T04:50:54.338Z,3480.00
2018-06-25T04:51:54.360Z,3544.00
2018-06-25T04:52:54.305Z,3784.00
2018-06-25T04:53:54.295Z,3664.00
2018-06-25T04:54:54.519Z,3636.00
2018-06-25T04:55:54.254Z,3624.00
2018-06-25T04:56:54.243Z,4104.00
2018-06-25T04:57:54.274Z,4540.00
2018-06-25T04:58:54.212Z,5036.00
2018-06-25T04:59:54.183Z,4792.00
2018-06-25T05:00:54.226Z,4580.00
2018-06-25T05:01:54.226Z,4692.00
2018-06-25T05:02:54.158Z,4948.00
2018-06-25T05:03:54.190Z,4372.00
2018-06-25T05:04:54.130Z,4064.00
2018-06-25T05:05:54.529Z,3956.00
2018-06-25T05:08:54.260Z,4660.00
2018-06-25T05:11:54.061Z,4424.00
2018-06-25T05:13:53.996Z,5016.00
2018-06-25T05:14:53.988Z,4972.00
2018-06-25T05:15:53.965Z,5424.00
2018-06-25T05:16:53.988Z,5972.00
2018-06-25T05:17:53.920Z,5704.00
2018-06-25T05:18:54.374Z,4480.00
2018-06-25T05:19:53.919Z,4152.00
2018-06-25T05:20:53.926Z,4076.00
2018-06-25T05:21:53.857Z,4508.00
2018-06-25T05:22:54.146Z,5120.00
2018-06-25T05:23:53.875Z,4988.00
2018-06-25T05:24:54.163Z,5528.00
2018-06-25T05:25:53.825Z,5924.00
2018-06-25T05:26:53.840Z,5292.00
2018-06-25T05:27:53.766Z,5464.00
2018-06-25T05:28:54.185Z,6268.00
2018-06-25T05:29:54.206Z,7332.00
2018-06-25T05:30:53.862Z,5780.00
2018-06-25T05:31:54.139Z,5564.00
2018-06-25T05:33:54.039Z,6744.00
2018-06-25T05:34:54.058Z,6456.00
2018-06-25T05:36:53.720Z,7484.00
2018-06-25T05:37:53.634Z,8304.00
2018-06-25T05:38:53.620Z,8124.00
2018-06-25T05:39:53.603Z,8392.00
2018-06-25T05:40:53.939Z,8388.00
2018-06-25T05:41:53.572Z,8820.00
2018-06-25T05:42:53.559Z,8204.00
2018-06-25T05:43:53.642Z,8684.00
2018-06-25T05:44:53.522Z,9344.00
2018-06-25T05:46:53.885Z,9764.00
2018-06-25T05:47:53.611Z,10000.00
2018-06-25T05:48:53.595Z,9880.00
2018-06-25T05:49:53.455Z,10112.00
2018-06-25T05:50:53.459Z,10196.00
2018-06-25T05:51:53.485Z,9856.00
2018-06-25T05:52:53.754Z,9436.00
2018-06-25T05:53:53.403Z,9732.00
2018-06-25T05:54:53.386Z,10896.00
2018-06-25T05:55:53.372Z,10988.00
2018-06-25T05:56:54.438Z,10420.00
2018-06-25T05:57:53.345Z,9400.00
2018-06-25T05:58:53.929Z,10180.00
2018-06-25T05:59:53.337Z,10912.00
2018-06-25T06:00:53.310Z,10628.00
2018-06-25T06:01:53.302Z,10888.00
2018-06-25T06:02:53.286Z,9800.00
2018-06-25T06:03:53.349Z,11016.00
2018-06-25T06:04:53.641Z,12396.00
2018-06-25T06:06:53.252Z,12188.00
2018-06-25T06:07:53.219Z,13060.00
2018-06-25T06:09:53.262Z,13436.00
2018-06-25T06:10:53.532Z,13512.00
2018-06-25T06:11:53.215Z,12480.00
2018-06-25T06:12:53.199Z,12624.00
2018-06-25T06:13:53.163Z,14004.00
2018-06-25T06:14:53.138Z,13672.00
2018-06-25T06:15:53.243Z,13276.00
2018-06-25T06:16:53.460Z,14632.00
2018-06-25T06:17:53.090Z,13256.00
2018-06-25T06:18:53.092Z,13588.00
2018-06-25T06:19:53.064Z,13160.00
2018-06-25T06:20:53.046Z,11424.00
2018-06-25T06:21:53.041Z,13688.00
2018-06-25T06:22:54.760Z,13228.00
2018-06-25T06:23:53.008Z,12712.00
2018-06-25T06:25:53.241Z,10964.00
2018-06-25T06:26:52.972Z,11660.00
2018-06-25T06:27:53.018Z,13240.00
2018-06-25T06:28:53.310Z,12584.00
2018-06-25T06:29:53.200Z,11308.00
2018-06-25T06:30:52.921Z,12668.00
2018-06-25T06:31:53.041Z,13992.00
2018-06-25T06:32:52.898Z,14872.00
2018-06-25T06:33:52.997Z,12616.00
2018-06-25T06:34:53.181Z,11056.00
2018-06-25T06:35:52.859Z,9196.00
2018-06-25T06:38:52.827Z,8392.00
2018-06-25T06:39:52.840Z,9628.00
2018-06-25T06:40:53.119Z,9232.00
2018-06-25T06:41:52.792Z,9420.00
2018-06-25T06:42:52.799Z,10088.00
2018-06-25T06:44:52.766Z,10164.00
2018-06-25T06:45:52.742Z,11240.00
2018-06-25T06:46:53.029Z,9576.00
2018-06-25T06:48:53.208Z,13112.00
2018-06-25T06:50:53.121Z,10076.00
2018-06-25T06:51:52.773Z,10556.00
2018-06-25T06:52:53.669Z,11108.00
2018-06-25T06:53:52.636Z,9520.00
2018-06-25T06:54:52.639Z,9864.00
2018-06-25T06:56:52.612Z,12136.00
2018-06-25T06:57:52.798Z,11444.00
2018-06-25T06:58:52.929Z,11216.00
2018-06-25T06:59:52.578Z,11780.00
2018-06-25T07:00:52.565Z,12400.00
2018-06-25T07:01:52.538Z,12596.00
2018-06-25T07:02:52.544Z,13824.00
2018-06-25T07:03:52.580Z,13472.00
2018-06-25T07:04:52.863Z,12720.00
2018-06-25T07:05:52.500Z,10816.00
2018-06-25T07:06:52.780Z,10656.00
2018-06-25T07:07:52.465Z,11708.00
2018-06-25T07:08:52.487Z,12204.00
2018-06-25T07:09:52.445Z,12356.00
2018-06-25T07:10:52.745Z,12424.00
2018-06-25T07:11:53.709Z,13116.00
2018-06-25T07:12:52.950Z,13572.00
2018-06-25T07:14:52.582Z,18304.00
2018-06-25T07:15:53.214Z,17056.00
2018-06-25T07:16:52.776Z,14984.00
2018-06-25T07:17:52.362Z,13664.00
2018-06-25T07:18:52.372Z,12860.00
2018-06-25T07:19:52.336Z,13320.00
2018-06-25T07:20:52.360Z,12156.00
2018-06-25T07:21:52.301Z,12460.00
2018-06-25T07:22:52.591Z,14600.00
2018-06-25T07:23:52.276Z,14388.00
2018-06-25T07:25:52.252Z,19392.00
2018-06-25T07:26:52.232Z,20128.00
2018-06-25T07:27:52.222Z,14440.00
2018-06-25T07:28:52.657Z,16096.00
2018-06-25T07:29:52.224Z,16544.00
2018-06-25T07:30:52.195Z,15968.00
2018-06-25T07:31:52.178Z,15000.00
2018-06-25T07:32:52.166Z,16736.00
2018-06-25T07:33:52.154Z,15184.00
2018-06-25T07:34:52.502Z,15596.00
2018-06-25T07:35:52.331Z,15708.00
2018-06-25T07:36:52.175Z,13348.00
2018-06-25T07:38:52.195Z,11188.00
2018-06-25T07:39:52.125Z,10844.00
2018-06-25T07:40:52.383Z,11344.00
2018-06-25T07:42:52.105Z,10252.00
2018-06-25T07:43:52.036Z,8696.00
2018-06-25T07:44:52.026Z,8448.00
2018-06-25T07:45:52.013Z,8668.00
2018-06-25T07:46:52.426Z,8688.00
2018-06-25T07:47:52.018Z,8408.00
2018-06-25T07:48:51.983Z,8952.00
2018-06-25T07:49:52.037Z,9484.00
2018-06-25T07:50:51.953Z,10940.00
2018-06-25T07:51:51.942Z,14328.00
2018-06-25T07:52:52.236Z,12824.00
2018-06-25T07:53:51.922Z,10192.00
2018-06-25T07:54:52.023Z,10768.00
2018-06-25T07:57:51.870Z,10772.00
2018-06-25T07:58:52.238Z,11376.00
2018-06-25T07:59:51.884Z,10604.00
2018-06-25T08:00:51.845Z,9856.00
2018-06-25T08:01:53.670Z,9412.00
2018-06-25T08:02:51.853Z,9792.00
2018-06-25T08:03:51.810Z,9980.00
2018-06-25T08:04:52.135Z,11832.00
2018-06-25T08:05:51.810Z,10788.00
2018-06-25T08:06:51.766Z,11260.00
2018-06-25T08:07:51.755Z,10308.00
2018-06-25T08:08:51.835Z,11068.00
2018-06-25T08:09:51.837Z,12100.00
2018-06-25T08:10:52.066Z,12300.00
2018-06-25T08:11:51.818Z,12016.00
2018-06-25T08:12:51.686Z,11508.00
2018-06-25T08:13:51.673Z,11132.00
2018-06-25T08:14:51.681Z,11780.00
2018-06-25T08:15:51.655Z,12860.00
2018-06-25T08:17:52.041Z,15052.00
2018-06-25T08:18:51.639Z,12928.00
2018-06-25T08:20:51.777Z,6180.00
2018-06-25T08:21:51.792Z,5592.00
2018-06-25T08:22:51.662Z,5936.00
2018-06-25T08:23:52.081Z,6476.00
2018-06-25T08:24:51.562Z,6348.00
2018-06-25T08:25:51.562Z,6260.00
2018-06-25T08:26:51.531Z,7624.00
2018-06-25T08:27:51.643Z,8152.00
2018-06-25T08:28:51.497Z,6580.00
2018-06-25T08:29:51.891Z,6788.00
2018-06-25T08:30:51.478Z,8396.00
2018-06-25T08:31:51.457Z,8700.00
2018-06-25T08:32:51.461Z,11200.00
2018-06-25T08:33:51.472Z,16084.00
2018-06-25T08:34:51.449Z,18304.00
2018-06-25T08:35:51.772Z,18464.00
2018-06-25T08:36:51.392Z,18912.00
2018-06-25T08:37:51.377Z,18432.00
2018-06-25T08:39:51.361Z,18560.00
2018-06-25T08:40:51.337Z,18016.00
2018-06-25T08:41:51.621Z,17696.00
2018-06-25T08:42:51.311Z,14476.00
2018-06-25T08:43:51.299Z,12012.00
2018-06-25T08:44:51.373Z,10780.00
2018-06-25T08:45:51.334Z,9524.00
2018-06-25T08:46:51.424Z,9088.00
2018-06-25T08:47:51.628Z,8512.00
2018-06-25T08:48:51.252Z,8604.00
2018-06-25T08:49:51.231Z,9932.00
2018-06-25T08:50:52.202Z,8688.00
2018-06-25T08:51:52.474Z,7612.00
2018-06-25T08:52:51.193Z,8068.00
2018-06-25T08:53:51.531Z,8736.00
2018-06-25T08:54:51.578Z,8220.00
2018-06-25T08:55:51.260Z,8988.00
2018-06-25T08:57:51.148Z,18560.00
2018-06-25T08:58:51.132Z,19488.00
2018-06-25T08:59:51.465Z,19264.00
2018-06-25T09:00:51.526Z,18976.00
2018-06-25T09:01:51.094Z,16768.00
2018-06-25T09:02:51.140Z,13708.00
2018-06-25T09:03:51.115Z,12436.00
2018-06-25T09:04:51.063Z,9800.00
2018-06-25T09:05:51.531Z,9328.00
2018-06-25T09:06:51.046Z,10444.00
2018-06-25T09:07:51.042Z,11388.00
2018-06-25T09:08:51.062Z,11252.00
2018-06-25T09:09:51.062Z,11092.00
2018-06-25T09:10:50.978Z,12764.00
2018-06-25T09:11:51.344Z,16288.00
2018-06-25T09:13:51.021Z,13844.00
2018-06-25T09:14:51.077Z,17728.00
2018-06-25T09:15:51.245Z,16864.00
2018-06-25T09:16:50.905Z,15992.00
2018-06-25T09:17:51.594Z,16004.00
2018-06-25T09:18:50.970Z,13840.00
2018-06-25T09:19:50.932Z,13680.00
2018-06-25T09:20:50.868Z,12828.00
2018-06-25T09:21:50.852Z,13172.00
2018-06-25T09:22:50.857Z,14388.00
2018-06-25T09:25:51.066Z,20480.00
2018-06-25T09:26:51.112Z,22048.00
2018-06-25T09:27:51.034Z,22720.00
2018-06-25T09:28:51.063Z,25824.00
2018-06-25T09:29:51.299Z,23552.00
2018-06-25T09:31:50.996Z,19136.00
2018-06-25T09:32:50.967Z,17824.00
2018-06-25T09:33:50.718Z,18656.00
2018-06-25T09:34:50.725Z,19328.00
2018-06-25T09:35:51.044Z,18688.00
2018-06-25T09:36:50.726Z,19264.00
2018-06-25T09:37:50.665Z,15424.00
2018-06-25T09:38:50.656Z,11000.00
2018-06-25T09:39:50.646Z,9012.00
2018-06-25T09:40:50.698Z,8504.00
2018-06-25T09:41:50.977Z,10920.00
2018-06-25T09:42:50.627Z,12572.00
2018-06-25T09:43:50.647Z,12300.00
2018-06-25T09:44:50.640Z,10416.00
2018-06-25T09:45:50.635Z,9140.00
2018-06-25T09:46:50.568Z,8292.00
2018-06-25T09:47:50.912Z,7620.00
2018-06-25T09:48:50.564Z,7060.00
2018-06-25T09:49:50.558Z,6936.00
2018-06-25T09:50:50.528Z,6788.00
2018-06-25T09:51:50.570Z,7228.00
2018-06-25T09:52:50.502Z,7176.00
2018-06-25T09:53:50.813Z,6976.00
2018-06-25T09:54:50.499Z,6432.00
2018-06-25T09:55:50.615Z,5960.00
2018-06-25T09:56:50.506Z,4980.00
2018-06-25T09:57:50.442Z,6368.00
2018-06-25T09:59:50.818Z,8796.00
2018-06-25T10:00:50.905Z,9688.00
2018-06-25T10:01:50.661Z,10976.00
2018-06-25T10:02:50.397Z,12280.00
2018-06-25T10:03:50.376Z,12292.00
2018-06-25T10:04:50.367Z,13520.00
2018-06-25T10:05:50.653Z,13580.00
2018-06-25T10:06:50.398Z,12860.00
2018-06-25T10:07:50.325Z,11380.00
2018-06-25T10:08:50.321Z,11828.00
2018-06-25T10:09:50.376Z,11136.00
2018-06-25T10:10:50.325Z,11448.00
2018-06-25T10:11:51.260Z,11348.00
2018-06-25T10:12:50.290Z,11076.00
2018-06-25T10:13:50.256Z,10920.00
2018-06-25T10:14:50.303Z,11668.00
2018-06-25T10:15:50.286Z,12636.00
2018-06-25T10:17:51.455Z,17728.00
2018-06-25T10:18:50.208Z,18496.00
2018-06-25T10:19:50.259Z,17600.00
2018-06-25T10:21:50.482Z,13144.00
2018-06-25T10:22:50.160Z,13368.00
2018-06-25T10:25:50.288Z,17440.00
2018-06-25T10:26:50.115Z,16480.00
2018-06-25T10:27:50.156Z,14196.00
2018-06-25T10:28:50.519Z,12944.00
2018-06-25T10:29:50.542Z,13132.00
2018-06-25T10:30:50.089Z,12920.00
2018-06-25T10:31:50.081Z,11720.00
2018-06-25T10:32:50.047Z,10968.00
2018-06-25T10:33:50.031Z,12248.00
2018-06-25T10:35:50.352Z,12884.00
2018-06-25T10:36:50.016Z,14540.00
2018-06-25T10:37:49.997Z,18496.00
2018-06-25T10:38:50.102Z,20448.00
2018-06-25T10:39:50.053Z,20160.00
2018-06-25T10:40:49.962Z,20768.00
2018-06-25T10:41:50.288Z,20832.00
2018-06-25T10:42:49.987Z,19328.00
2018-06-25T10:43:49.936Z,17536.00
2018-06-25T10:44:50.128Z,16224.00
2018-06-25T10:45:49.897Z,13504.00
2018-06-25T10:46:49.949Z,12940.00
2018-06-25T10:47:50.207Z,14320.00
2018-06-25T10:48:49.935Z,15244.00
2018-06-25T10:49:49.856Z,15840.00
2018-06-25T10:50:50.089Z,16800.00
2018-06-25T10:51:49.836Z,18208.00
2018-06-25T10:52:49.824Z,19808.00
2018-06-25T10:53:50.180Z,21600.00
2018-06-25T10:54:49.810Z,23904.00
2018-06-25T10:55:49.812Z,27648.00
2018-06-25T10:56:49.789Z,32576.00
2018-06-25T10:57:49.770Z,33024.00
2018-06-25T10:58:49.782Z,35552.00
2018-06-25T10:59:50.654Z,36000.00
2018-06-25T11:01:49.788Z,31680.00
2018-06-25T11:02:49.705Z,24608.00
2018-06-25T11:03:49.709Z,18784.00
2018-06-25T11:04:50.154Z,14520.00
2018-06-25T11:05:50.487Z,12660.00
2018-06-25T11:06:49.897Z,12376.00
2018-06-25T11:08:49.676Z,9264.00
2018-06-25T11:09:49.656Z,9264.00
2018-06-25T11:10:49.652Z,9868.00
2018-06-25T11:11:49.984Z,10292.00
2018-06-25T11:12:49.719Z,10488.00
2018-06-25T11:13:49.721Z,9816.00
2018-06-25T11:14:49.621Z,10084.00
2018-06-25T11:15:49.920Z,10432.00
2018-06-25T11:16:49.632Z,11044.00
2018-06-25T11:23:50.434Z,17888.00
2018-06-25T11:25:49.496Z,19392.00
2018-06-25T11:27:49.536Z,20448.00
2018-06-25T11:29:49.789Z,21248.00
2018-06-25T11:30:49.431Z,19840.00
2018-06-25T11:31:49.418Z,18464.00
2018-06-25T11:32:49.495Z,15432.00
2018-06-25T11:33:49.406Z,11212.00
2018-06-25T11:34:49.367Z,9064.00
2018-06-25T11:35:49.916Z,8468.00
2018-06-25T11:36:49.372Z,8268.00
2018-06-25T11:37:49.398Z,8492.00
2018-06-25T11:38:49.340Z,9220.00
2018-06-25T11:39:49.345Z,9828.00
2018-06-25T11:40:49.316Z,10520.00
2018-06-25T11:41:49.800Z,10984.00
2018-06-25T11:43:55.806Z,12908.00
2018-06-25T11:44:51.096Z,10736.00
2018-06-25T11:45:50.556Z,9752.00
2018-06-25T11:46:53.549Z,9648.00
2018-06-25T11:47:50.655Z,8100.00
2018-06-25T11:48:50.040Z,7924.00
2018-06-25T11:49:49.210Z,7116.00
2018-06-25T11:50:49.292Z,8768.00
2018-06-25T11:51:49.243Z,9928.00
2018-06-25T11:52:49.510Z,13276.00
2018-06-25T11:54:49.522Z,19136.00
2018-06-25T11:55:49.150Z,18336.00
2018-06-25T11:56:49.197Z,17216.00
2018-06-25T11:57:49.186Z,14504.00
2018-06-25T11:58:49.135Z,11792.00
2018-06-25T12:01:49.518Z,11080.00
2018-06-25T12:02:49.187Z,13208.00
2018-06-25T12:03:49.075Z,11992.00
2018-06-25T12:04:50.104Z,9476.00
2018-06-25T12:05:49.022Z,7808.00
2018-06-25T12:06:49.066Z,7096.00
2018-06-25T12:07:49.053Z,7492.00
2018-06-25T12:08:48.996Z,6728.00
2018-06-25T12:10:49.043Z,8004.00
2018-06-25T12:11:49.035Z,9388.00
2018-06-25T12:12:49.243Z,10656.00
2018-06-25T12:13:49.005Z,11448.00
2018-06-25T12:14:48.917Z,16640.00
2018-06-25T12:15:48.899Z,20064.00
2018-06-25T12:16:48.962Z,21952.00
2018-06-25T12:17:49.032Z,23392.00
2018-06-25T12:18:49.230Z,23680.00
2018-06-25T12:19:48.949Z,28704.00
2018-06-25T12:20:48.996Z,29696.00
2018-06-25T12:21:48.835Z,27872.00
2018-06-25T12:22:48.865Z,26144.00
2018-06-25T12:23:49.062Z,24288.00
2018-06-25T12:24:49.205Z,22432.00
2018-06-25T12:26:48.825Z,19424.00
2018-06-25T12:27:48.811Z,20928.00
2018-06-25T12:28:48.770Z,19712.00
2018-06-25T12:30:49.031Z,19968.00
2018-06-25T12:31:48.779Z,21984.00
2018-06-25T12:32:48.769Z,22432.00
2018-06-25T12:33:48.763Z,19712.00
2018-06-25T12:34:48.717Z,16032.00
2018-06-25T12:35:49.687Z,16416.00
2018-06-25T12:36:48.959Z,18080.00
2018-06-25T12:37:49.592Z,23328.00
2018-06-25T12:38:48.775Z,25856.00
2018-06-25T12:39:48.912Z,23520.00
2018-06-25T12:40:48.850Z,26176.00
2018-06-25T12:41:48.766Z,24992.00
2018-06-25T12:43:48.891Z,18144.00
2018-06-25T12:45:48.613Z,12456.00
2018-06-25T12:47:48.647Z,11204.00
2018-06-25T12:48:48.665Z,11828.00
2018-06-25T12:49:49.319Z,12060.00
2018-06-25T12:50:48.593Z,14984.00
2018-06-25T12:51:48.604Z,17824.00
2018-06-25T12:52:48.595Z,20032.00
2018-06-25T12:54:48.565Z,28480.00
2018-06-25T12:55:48.884Z,23968.00
2018-06-25T12:56:48.509Z,23040.00
2018-06-25T12:57:48.528Z,23616.00
2018-06-25T12:59:48.484Z,26336.00
2018-06-25T13:00:48.619Z,23264.00
2018-06-25T13:01:48.796Z,16416.00
2018-06-25T13:03:48.755Z,18304.00
2018-06-25T13:04:48.636Z,20576.00
2018-06-25T13:05:48.585Z,21184.00
2018-06-25T13:06:49.195Z,21472.00
2018-06-25T13:07:48.910Z,18688.00
2018-06-25T13:08:48.671Z,18400.00
2018-06-25T13:09:48.367Z,20384.00
2018-06-25T13:10:54.917Z,22912.00
2018-06-25T13:11:48.400Z,23136.00
2018-06-25T13:12:48.853Z,15916.00
2018-06-25T13:13:48.598Z,10144.00
2018-06-25T13:14:48.336Z,9248.00
2018-06-25T13:17:48.772Z,9388.00
2018-06-25T13:18:48.230Z,10500.00
2018-06-25T13:19:48.514Z,11292.00
2018-06-25T13:20:48.178Z,12868.00
2018-06-25T13:21:48.232Z,12064.00
2018-06-25T13:22:48.240Z,12144.00
2018-06-25T13:23:48.223Z,13944.00
2018-06-25T13:24:48.142Z,18944.00
2018-06-25T13:26:48.469Z,25504.00
2018-06-25T13:27:48.172Z,26048.00
2018-06-25T13:28:48.139Z,27968.00
2018-06-25T13:29:48.202Z,28608.00
2018-06-25T13:30:48.288Z,27488.00
2018-06-25T13:31:48.067Z,27520.00
2018-06-25T13:33:48.145Z,27360.00
2018-06-25T13:34:48.077Z,23648.00
2018-06-25T13:35:48.023Z,21376.00
2018-06-25T13:36:48.080Z,17984.00
2018-06-25T13:37:48.047Z,16004.00
2018-06-25T13:38:48.035Z,16352.00
2018-06-25T13:39:48.014Z,18016.00
2018-06-25T13:40:47.955Z,18720.00
2018-06-25T13:41:47.976Z,15480.00
2018-06-25T13:42:47.957Z,13768.00
2018-06-25T13:43:47.945Z,16992.00
2018-06-25T13:44:48.491Z,17760.00
2018-06-25T13:45:48.728Z,16544.00
2018-06-25T13:46:48.828Z,17696.00
2018-06-25T13:47:48.677Z,16096.00
2018-06-25T13:49:49.264Z,20320.00
2018-06-25T13:50:48.148Z,20640.00
2018-06-25T13:51:47.891Z,24320.00
2018-06-25T13:52:47.865Z,21216.00
2018-06-25T13:53:47.828Z,18336.00
2018-06-25T13:54:47.898Z,13680.00